Time;durP1;ratioP1;P1;durP2;ratioP2;P2;SDS_P1;SDS_P2;PMS_P1;PMS_P2;Temp;Humidity;BMP_temperature;BMP_pressure;BME280_temperature;BME280_humidity;BME280_pressure;Samples;Min_cycle;Max_cycle;Signal;HPM_P1;HPM_P2
2023/05/10 00:01:08;;;;;;;18.48;12.35;;;12.90;99.90;;;;;;4994412;28;20056;-79
2023/05/10 00:03:54;;;;;;;19.65;12.45;;;12.90;99.90;;;;;;4993164;28;20759;-79
2023/05/10 00:06:40;;;;;;;18.02;10.77;;;12.90;99.90;;;;;;5010075;28;20046;-79
2023/05/10 00:09:28;;;;;;;21.08;11.63;;;12.90;99.90;;;;;;4992748;28;20057;-79
2023/05/10 00:12:15;;;;;;;20.25;11.07;;;12.80;99.90;;;;;;4978750;28;20060;-79
2023/05/10 00:15:02;;;;;;;15.80;9.00;;;12.80;99.90;;;;;;5010810;28;20057;-79
2023/05/10 00:17:48;;;;;;;18.75;11.18;;;12.80;99.90;;;;;;5010484;28;20132;-79
2023/05/10 00:20:35;;;;;;;18.58;10.75;;;12.80;99.90;;;;;;4991900;28;20057;-79
2023/05/10 00:23:21;;;;;;;24.65;12.48;;;12.70;99.90;;;;;;5010066;28;20058;-79
2023/05/10 00:26:07;;;;;;;22.50;11.00;;;12.80;99.90;;;;;;5004014;28;20108;-79
2023/05/10 00:28:53;;;;;;;19.63;11.18;;;12.70;99.90;;;;;;4993400;28;20053;-79
2023/05/10 00:31:39;;;;;;;24.65;11.98;;;12.70;99.90;;;;;;5009697;28;20584;-78
2023/05/10 00:34:26;;;;;;;23.42;11.02;;;12.70;99.90;;;;;;4990163;28;20058;-79
2023/05/10 00:37:12;;;;;;;19.20;10.13;;;12.70;99.90;;;;;;4979626;28;20457;-77
2023/05/10 00:39:59;;;;;;;19.73;11.02;;;12.70;99.90;;;;;;4992176;28;20441;-78
2023/05/10 00:42:45;;;;;;;19.27;10.43;;;12.70;99.90;;;;;;5010070;28;20505;-79
2023/05/10 00:45:32;;;;;;;19.27;10.70;;;12.80;99.90;;;;;;4989948;28;20062;-79
2023/05/10 00:48:19;;;;;;;20.50;10.25;;;12.70;99.90;;;;;;4992170;28;20402;-80
2023/05/10 00:51:06;;;;;;;20.40;11.07;;;12.70;99.90;;;;;;4979476;28;20057;-79
2023/05/10 00:53:52;;;;;;;15.43;9.38;;;12.70;99.90;;;;;;4991929;28;20157;-79
2023/05/10 00:56:38;;;;;;;12.25;8.00;;;12.70;99.90;;;;;;4992682;28;20494;-80
2023/05/10 00:59:24;;;;;;;14.70;9.13;;;12.70;99.90;;;;;;5009333;28;20502;-79
2023/05/10 01:02:12;;;;;;;14.70;8.70;;;12.60;99.90;;;;;;4978617;28;20116;-79
2023/05/10 01:04:59;;;;;;;12.63;8.25;;;12.60;99.90;;;;;;4979011;28;20137;-80
2023/05/10 01:07:45;;;;;;;13.23;8.60;;;12.60;99.90;;;;;;4978132;28;20061;-79
2023/05/10 01:10:32;;;;;;;15.15;8.73;;;12.60;99.90;;;;;;4996206;28;20053;-79
2023/05/10 01:13:39;;;;;;;12.63;8.30;;;12.50;99.90;;;;;;4999592;28;20049;-80
2023/05/10 01:16:26;;;;;;;13.57;9.45;;;12.50;99.90;;;;;;4997663;28;20494;-78
2023/05/10 01:19:24;;;;;;;12.27;8.80;;;12.50;99.90;;;;;;4996267;28;20058;-77
2023/05/10 01:22:42;;;;;;;12.38;9.02;;;12.50;99.90;;;;;;4995919;28;20141;-78
2023/05/10 01:25:44;;;;;;;12.07;8.35;;;12.50;99.90;;;;;;4970084;28;20136;-78
2023/05/10 01:28:35;;;;;;;12.07;8.65;;;12.40;99.90;;;;;;4982028;28;20115;-78
2023/05/10 01:31:37;;;;;;;14.35;9.13;;;12.40;99.90;;;;;;4982255;28;20057;-79
2023/05/10 01:34:39;;;;;;;12.00;7.80;;;12.30;99.90;;;;;;4996097;28;20050;-78
2023/05/10 01:37:40;;;;;;;9.95;7.30;;;12.30;99.90;;;;;;4995842;28;20132;-79
2023/05/10 01:40:33;;;;;;;11.75;7.50;;;12.30;99.90;;;;;;4998653;28;20062;-78
2023/05/10 01:43:26;;;;;;;11.05;6.93;;;12.30;99.90;;;;;;4999246;28;20192;-79
2023/05/10 01:46:24;;;;;;;9.18;7.00;;;12.30;99.90;;;;;;4981851;28;20046;-78
2023/05/10 01:49:28;;;;;;;9.70;6.90;;;12.30;99.90;;;;;;5013460;28;20060;-80
2023/05/10 01:52:21;;;;;;;10.65;7.25;;;12.20;99.90;;;;;;4995659;28;20057;-79
2023/05/10 01:55:16;;;;;;;8.77;6.45;;;12.20;99.90;;;;;;4998838;28;20127;-80
2023/05/10 01:58:12;;;;;;;8.20;6.45;;;12.20;99.90;;;;;;4996078;28;20115;-78
2023/05/10 02:01:06;;;;;;;8.73;7.10;;;12.20;99.90;;;;;;4982530;28;20100;-77
2023/05/10 02:03:58;;;;;;;8.52;6.63;;;12.20;99.90;;;;;;5012815;28;20473;-78
2023/05/10 02:06:46;;;;;;;8.38;6.70;;;12.20;99.90;;;;;;4994430;28;20136;-78
2023/05/10 02:09:34;;;;;;;9.38;7.63;;;12.20;99.90;;;;;;4980662;28;20135;-78
2023/05/10 02:12:22;;;;;;;11.00;7.90;;;12.20;99.90;;;;;;4968109;28;20395;-78
2023/05/10 02:15:10;;;;;;;8.88;7.15;;;12.10;99.90;;;;;;5013099;28;20050;-78
2023/05/10 02:18:00;;;;;;;9.18;7.50;;;12.10;99.90;;;;;;5012659;28;20038;-79
2023/05/10 02:20:46;;;;;;;8.68;6.55;;;12.10;99.90;;;;;;4997267;28;20171;-79
2023/05/10 02:23:34;;;;;;;8.77;4.95;;;12.20;99.90;;;;;;4998155;28;20057;-79
2023/05/10 02:26:23;;;;;;;7.72;5.38;;;12.10;99.90;;;;;;4981571;28;20050;-79
2023/05/10 02:29:12;;;;;;;6.68;4.97;;;12.10;99.90;;;;;;4994845;28;20153;-78
2023/05/10 02:31:59;;;;;;;7.45;5.53;;;12.10;99.90;;;;;;4994059;28;20050;-79
2023/05/10 02:34:51;;;;;;;7.05;5.35;;;12.10;99.90;;;;;;5012413;28;20046;-78
2023/05/10 02:37:39;;;;;;;7.60;4.72;;;12.10;99.90;;;;;;4993591;28;20502;-78
2023/05/10 02:40:27;;;;;;;5.95;4.43;;;12.10;99.90;;;;;;5011561;28;20057;-78
2023/05/10 02:43:15;;;;;;;6.75;4.70;;;12.10;99.90;;;;;;4979720;28;20100;-78
2023/05/10 02:46:02;;;;;;;14.13;4.90;;;12.10;99.90;;;;;;4994761;28;20056;-78
2023/05/10 02:48:49;;;;;;;7.13;4.78;;;12.10;99.90;;;;;;5009695;28;20064;-79
2023/05/10 02:51:47;;;;;;;9.27;6.10;;;12.10;99.90;;;;;;4981800;28;20041;-78
2023/05/10 02:54:44;;;;;;;8.23;5.85;;;12.10;99.90;;;;;;4980052;28;20050;-77
2023/05/10 02:57:33;;;;;;;10.10;6.93;;;12.10;99.90;;;;;;4993231;28;20140;-77
2023/05/10 03:00:25;;;;;;;12.88;7.72;;;12.10;99.90;;;;;;4994137;28;20053;-78
2023/05/10 03:03:15;;;;;;;9.57;7.38;;;12.10;99.90;;;;;;4981019;28;20041;-78
2023/05/10 03:06:04;;;;;;;11.02;7.95;;;12.10;99.90;;;;;;5012127;28;20050;-78
2023/05/10 03:08:50;;;;;;;8.57;6.75;;;12.10;99.90;;;;;;4980065;28;20142;-78
2023/05/10 03:11:55;;;;;;;7.22;3.88;;;12.20;99.90;;;;;;4994427;28;20387;-78
2023/05/10 03:15:05;;;;;;;6.93;4.68;;;12.20;99.90;;;;;;4994330;28;20057;-78
2023/05/10 03:18:00;;;;;;;8.60;4.80;;;12.10;99.90;;;;;;4980533;28;20457;-77
2023/05/10 03:20:48;;;;;;;7.43;4.60;;;12.20;99.90;;;;;;4994506;28;20054;-77
2023/05/10 03:23:40;;;;;;;6.95;4.28;;;12.20;99.90;;;;;;5012382;28;20050;-78
2023/05/10 03:26:28;;;;;;;6.78;4.57;;;12.10;99.90;;;;;;5011357;28;20046;-78
2023/05/10 03:29:15;;;;;;;7.05;3.63;;;12.10;99.90;;;;;;4982526;28;20469;-78
2023/05/10 03:32:01;;;;;;;6.82;4.10;;;12.20;99.90;;;;;;5011108;28;20092;-78
2023/05/10 03:34:47;;;;;;;7.90;5.38;;;12.10;99.90;;;;;;4966682;28;20050;-78
2023/05/10 03:37:36;;;;;;;8.18;5.45;;;12.10;99.90;;;;;;4979194;28;20514;-79
2023/05/10 03:40:31;;;;;;;7.75;5.07;;;12.10;99.90;;;;;;5011286;28;20050;-78
2023/05/10 03:43:17;;;;;;;8.85;5.70;;;12.20;99.90;;;;;;5010923;28;20141;-79
2023/05/10 03:46:05;;;;;;;10.30;6.20;;;12.10;99.90;;;;;;4993141;28;20595;-78
2023/05/10 03:48:51;;;;;;;8.25;5.35;;;12.20;99.90;;;;;;4993026;28;20208;-78
2023/05/10 03:51:37;;;;;;;8.02;5.57;;;12.10;99.90;;;;;;4979854;28;20081;-78
2023/05/10 03:54:23;;;;;;;11.80;7.88;;;12.20;99.90;;;;;;4992989;28;20061;-79
2023/05/10 03:57:09;;;;;;;12.63;8.63;;;12.20;99.90;;;;;;4993220;28;20050;-78
2023/05/10 03:59:56;;;;;;;10.60;6.20;;;12.20;99.90;;;;;;4988994;28;20050;-78
2023/05/10 04:02:46;;;;;;;8.15;5.30;;;12.20;99.90;;;;;;4992836;28;20054;-80
2023/05/10 04:05:32;;;;;;;6.18;4.43;;;12.20;99.90;;;;;;4993100;28;20081;-79
2023/05/10 04:08:18;;;;;;;5.53;3.55;;;12.20;99.90;;;;;;4980017;28;20128;-79
2023/05/10 04:11:12;;;;;;;5.85;3.05;;;12.20;99.90;;;;;;4978147;28;20405;-79
2023/05/10 04:14:01;;;;;;;3.67;2.33;;;12.20;99.90;;;;;;5011242;28;20045;-78
2023/05/10 04:16:47;;;;;;;3.45;1.90;;;12.20;99.90;;;;;;4993249;28;20128;-79
2023/05/10 04:19:34;;;;;;;5.45;2.63;;;12.10;99.90;;;;;;4979955;28;20490;-78
2023/05/10 04:22:20;;;;;;;4.53;2.72;;;12.10;99.90;;;;;;4993203;28;20524;-78
2023/05/10 04:25:07;;;;;;;4.82;2.92;;;12.10;99.90;;;;;;5010277;28;20540;-79
2023/05/10 04:27:53;;;;;;;6.10;2.40;;;12.00;99.90;;;;;;5009846;28;20057;-78
2023/05/10 04:30:40;;;;;;;4.20;2.30;;;12.10;99.90;;;;;;4993237;28;20054;-79
2023/05/10 04:33:26;;;;;;;4.35;1.60;;;12.00;99.90;;;;;;5010501;28;20145;-78
2023/05/10 04:36:12;;;;;;;2.70;1.35;;;12.00;99.90;;;;;;5009116;28;20505;-78
2023/05/10 04:38:58;;;;;;;4.93;2.20;;;12.00;99.90;;;;;;4992103;28;20050;-79
2023/05/10 04:41:44;;;;;;;5.43;3.33;;;12.00;99.90;;;;;;5008874;28;20230;-78
2023/05/10 04:44:33;;;;;;;5.05;2.63;;;12.00;99.90;;;;;;4997725;28;20046;-79
2023/05/10 04:47:19;;;;;;;3.92;2.25;;;12.00;99.90;;;;;;4997881;28;20054;-78
2023/05/10 04:50:07;;;;;;;4.10;1.95;;;12.00;99.90;;;;;;4984478;28;20050;-77
2023/05/10 04:52:53;;;;;;;5.13;3.00;;;12.00;99.90;;;;;;4986642;28;20057;-77
2023/05/10 04:55:40;;;;;;;5.50;3.42;;;12.00;99.90;;;;;;4999108;28;20133;-79
2023/05/10 04:58:27;;;;;;;4.75;3.13;;;12.00;99.90;;;;;;4998891;28;20211;-78
2023/05/10 05:01:13;;;;;;;4.90;2.17;;;12.00;99.90;;;;;;4997692;28;20145;-78
2023/05/10 05:04:00;;;;;;;2.90;1.58;;;12.00;99.90;;;;;;4985545;28;20054;-78
2023/05/10 05:06:46;;;;;;;4.47;2.17;;;12.00;99.90;;;;;;4999317;28;20054;-78
2023/05/10 05:09:32;;;;;;;3.85;1.77;;;12.00;99.90;;;;;;4986150;28;20054;-78
2023/05/10 05:12:18;;;;;;;4.18;1.88;;;12.00;99.90;;;;;;5001856;28;20414;-79
2023/05/10 05:15:04;;;;;;;3.50;2.00;;;12.00;99.90;;;;;;5016991;28;20515;-78
2023/05/10 05:17:51;;;;;;;4.75;2.45;;;12.00;99.90;;;;;;4984553;28;20108;-79
2023/05/10 05:20:37;;;;;;;5.75;2.97;;;11.90;99.90;;;;;;4985202;28;20092;-79
2023/05/10 05:23:24;;;;;;;4.82;2.92;;;11.90;99.90;;;;;;4998114;28;20054;-79
2023/05/10 05:26:14;;;;;;;8.77;5.50;;;11.90;99.90;;;;;;4999088;28;20050;-78
2023/05/10 05:29:04;;;;;;;7.25;4.82;;;11.90;99.90;;;;;;4986150;28;20104;-79
2023/05/10 05:31:50;;;;;;;7.72;3.97;;;11.90;99.90;;;;;;4985123;28;20062;-77
2023/05/10 05:34:36;;;;;;;9.30;4.72;;;11.90;99.90;;;;;;5000138;28;20096;-77
2023/05/10 05:37:22;;;;;;;11.10;6.18;;;11.90;99.90;;;;;;4972404;28;20049;-78
2023/05/10 05:40:12;;;;;;;9.85;5.75;;;11.80;99.90;;;;;;5015183;28;20049;-79
2023/05/10 05:42:59;;;;;;;10.30;6.80;;;11.80;99.90;;;;;;4998999;28;20054;-78
2023/05/10 05:45:45;;;;;;;7.47;5.03;;;11.80;99.90;;;;;;4999357;28;20502;-78
2023/05/10 05:48:31;;;;;;;7.05;4.70;;;11.80;99.90;;;;;;5016835;28;20053;-79
2023/05/10 05:51:17;;;;;;;5.60;3.83;;;11.90;99.90;;;;;;4999431;28;20137;-79
2023/05/10 05:54:04;;;;;;;6.75;3.08;;;11.80;99.90;;;;;;4992061;28;20069;-79
2023/05/10 05:56:50;;;;;;;8.45;5.13;;;11.80;99.90;;;;;;4962941;28;20062;-79
2023/05/10 05:59:36;;;;;;;6.90;4.53;;;11.90;99.90;;;;;;4962776;28;20038;-79
2023/05/10 06:02:25;;;;;;;7.95;5.30;;;11.90;99.90;;;;;;4979282;28;20506;-79
2023/05/10 06:05:11;;;;;;;9.45;6.45;;;11.80;99.90;;;;;;4936182;28;20065;-78
2023/05/10 06:08:00;;;;;;;6.15;4.00;;;11.90;99.90;;;;;;4978611;28;20101;-79
2023/05/10 06:10:50;;;;;;;6.03;3.85;;;11.80;99.90;;;;;;4993636;28;20054;-79
2023/05/10 06:13:36;;;;;;;6.85;4.30;;;11.90;99.90;;;;;;4976189;28;20042;-78
2023/05/10 06:16:22;;;;;;;6.78;2.83;;;11.90;99.90;;;;;;4962607;28;20061;-78
2023/05/10 06:19:08;;;;;;;5.45;2.78;;;11.90;99.90;;;;;;4975502;28;20085;-79
2023/05/10 06:21:55;;;;;;;4.32;2.00;;;12.00;99.90;;;;;;4992716;28;20062;-79
2023/05/10 06:24:43;;;;;;;4.22;1.80;;;11.90;99.90;;;;;;4975145;28;20058;-78
2023/05/10 06:27:32;;;;;;;3.80;1.92;;;11.90;99.90;;;;;;4950110;28;20495;-78
2023/05/10 06:30:18;;;;;;;2.92;1.80;;;12.00;99.90;;;;;;4962040;28;20133;-79
2023/05/10 06:33:04;;;;;;;3.90;2.03;;;11.90;99.90;;;;;;4978786;28;20120;-78
2023/05/10 06:35:51;;;;;;;5.20;2.00;;;12.00;99.90;;;;;;4975779;28;20058;-79
2023/05/10 06:38:37;;;;;;;3.75;1.52;;;12.00;99.90;;;;;;4962542;28;20054;-79
2023/05/10 06:41:23;;;;;;;3.50;1.50;;;12.00;99.90;;;;;;4976084;28;20081;-79
2023/05/10 06:44:09;;;;;;;3.88;1.60;;;12.00;99.90;;;;;;4961407;28;20046;-78
2023/05/10 06:46:56;;;;;;;4.45;1.30;;;12.10;99.90;;;;;;4974582;28;20510;-77
2023/05/10 06:49:42;;;;;;;2.78;1.40;;;12.20;99.90;;;;;;4961839;28;20050;-77
2023/05/10 06:52:28;;;;;;;3.63;1.70;;;12.10;99.90;;;;;;4962056;28;20062;-77
2023/05/10 06:55:14;;;;;;;3.60;1.75;;;12.10;99.90;;;;;;4974731;28;20391;-77
2023/05/10 06:58:00;;;;;;;4.90;2.50;;;12.20;99.90;;;;;;5011920;28;20054;-78
2023/05/10 07:00:47;;;;;;;4.65;1.75;;;12.20;99.90;;;;;;4980939;28;20208;-77
2023/05/10 07:03:33;;;;;;;2.83;1.38;;;12.30;99.90;;;;;;5012813;28;20072;-78
2023/05/10 07:06:19;;;;;;;4.65;1.58;;;12.30;99.90;;;;;;5011719;28;20058;-79
2023/05/10 07:09:08;;;;;;;4.30;1.95;;;12.40;99.90;;;;;;4981069;28;20053;-78
2023/05/10 07:11:54;;;;;;;5.15;1.95;;;12.40;99.90;;;;;;4993822;28;20045;-78
2023/05/10 07:14:40;;;;;;;2.80;1.58;;;12.40;99.90;;;;;;4995670;28;20388;-79
2023/05/10 07:17:27;;;;;;;4.53;1.67;;;12.30;99.90;;;;;;4994904;28;20505;-78
2023/05/10 07:20:15;;;;;;;4.50;2.40;;;12.50;99.90;;;;;;4994368;28;20050;-79
2023/05/10 07:23:04;;;;;;;2.85;1.77;;;12.40;99.90;;;;;;4981557;28;20522;-79
2023/05/10 07:25:51;;;;;;;4.57;2.40;;;12.40;99.90;;;;;;4980680;28;20050;-78
2023/05/10 07:28:38;;;;;;;5.85;2.38;;;12.50;99.90;;;;;;4979481;28;20053;-78
2023/05/10 07:31:25;;;;;;;5.55;2.45;;;12.40;99.90;;;;;;4967314;28;20506;-78
2023/05/10 07:34:11;;;;;;;5.50;3.20;;;12.40;99.90;;;;;;5010732;28;20077;-77
2023/05/10 07:36:58;;;;;;;6.75;3.42;;;12.40;99.90;;;;;;4994294;28;20410;-77
2023/05/10 07:39:45;;;;;;;6.43;2.92;;;12.50;99.90;;;;;;5009550;28;20057;-77
2023/05/10 07:42:36;;;;;;;9.15;3.72;;;12.50;99.90;;;;;;4979269;28;20053;-78
2023/05/10 07:45:24;;;;;;;5.45;2.58;;;12.60;99.90;;;;;;4993515;28;20056;-76
2023/05/10 07:48:13;;;;;;;3.83;2.13;;;12.70;99.90;;;;;;4993007;28;20057;-77
2023/05/10 07:51:02;;;;;;;7.10;3.50;;;12.70;99.90;;;;;;5010841;28;20042;-78
2023/05/10 07:53:48;;;;;;;5.65;2.40;;;12.80;99.90;;;;;;4991505;28;20050;-78
2023/05/10 07:56:34;;;;;;;7.03;3.85;;;12.80;99.90;;;;;;5010344;28;20049;-78
2023/05/10 07:59:21;;;;;;;5.78;3.20;;;12.80;99.90;;;;;;4992723;28;20083;-78
2023/05/10 08:02:07;;;;;;;7.05;3.08;;;12.80;99.90;;;;;;4993583;28;20050;-77
2023/05/10 08:04:53;;;;;;;9.00;3.75;;;12.80;99.90;;;;;;4994142;28;20057;-78
2023/05/10 08:07:40;;;;;;;5.07;2.80;;;12.70;99.90;;;;;;4979747;28;20569;-78
2023/05/10 08:10:26;;;;;;;8.15;3.20;;;12.70;99.90;;;;;;4993982;28;20139;-78
2023/05/10 08:13:12;;;;;;;7.45;3.33;;;12.60;99.90;;;;;;4979270;28;20046;-77
2023/05/10 08:16:01;;;;;;;7.10;3.80;;;12.60;99.90;;;;;;4992823;28;20054;-77
2023/05/10 08:18:47;;;;;;;9.95;4.43;;;12.50;99.90;;;;;;5003255;28;20045;-77
2023/05/10 08:21:35;;;;;;;7.50;3.13;;;12.60;99.90;;;;;;5010276;28;20053;-77
2023/05/10 08:24:22;;;;;;;7.45;2.85;;;12.60;99.90;;;;;;4980009;28;20054;-78
2023/05/10 08:27:08;;;;;;;6.28;3.58;;;12.60;99.90;;;;;;4993093;28;20050;-78
2023/05/10 08:29:54;;;;;;;4.60;3.28;;;12.60;99.90;;;;;;4980145;28;20493;-77
2023/05/10 08:32:45;;;;;;;6.72;3.38;;;12.60;99.90;;;;;;4992598;28;20053;-78
2023/05/10 08:35:31;;;;;;;4.95;2.97;;;12.70;99.90;;;;;;4993202;28;20056;-77
2023/05/10 08:38:18;;;;;;;4.82;2.50;;;12.80;99.90;;;;;;4979061;28;20115;-79
2023/05/10 08:41:05;;;;;;;7.28;2.63;;;12.90;99.90;;;;;;5008004;28;20061;-78
2023/05/10 08:43:55;;;;;;;7.60;2.60;;;12.90;99.90;;;;;;4991965;28;20050;-79
2023/05/10 08:46:46;;;;;;;7.07;2.58;;;13.00;99.90;;;;;;4993241;28;20058;-79
2023/05/10 08:49:37;;;;;;;8.15;3.28;;;13.10;99.90;;;;;;4980461;28;20065;-78
2023/05/10 08:52:27;;;;;;;5.72;2.70;;;13.20;99.90;;;;;;4991815;28;20069;-78
2023/05/10 08:55:16;;;;;;;3.90;1.83;;;13.20;99.90;;;;;;5010387;28;20521;-78
2023/05/10 08:58:04;;;;;;;5.10;1.90;;;13.30;99.90;;;;;;4991683;28;20092;-78
2023/05/10 09:00:53;;;;;;;4.50;1.90;;;13.40;99.90;;;;;;4985123;28;20046;-78
2023/05/10 09:03:40;;;;;;;5.03;2.35;;;13.60;99.90;;;;;;4979834;28;20516;-79
2023/05/10 09:06:27;;;;;;;4.13;2.10;;;13.90;99.90;;;;;;4992871;28;20054;-78
2023/05/10 09:09:15;;;;;;;5.53;1.98;;;14.10;99.90;;;;;;5007027;28;20056;-78
2023/05/10 09:12:02;;;;;;;7.25;2.35;;;14.30;99.90;;;;;;4993927;28;20124;-78
2023/05/10 09:14:50;;;;;;;4.35;2.05;;;14.40;99.90;;;;;;5009263;28;20516;-78
2023/05/10 09:17:40;;;;;;;6.25;2.17;;;14.50;99.90;;;;;;4993180;28;20128;-79
2023/05/10 09:20:26;;;;;;;3.53;1.88;;;14.60;99.90;;;;;;4978701;28;20144;-79
2023/05/10 09:23:16;;;;;;;3.50;1.85;;;14.70;99.90;;;;;;5009826;28;20493;-78
2023/05/10 09:26:07;;;;;;;4.80;2.33;;;14.60;99.90;;;;;;4991340;28;20041;-78
2023/05/10 09:29:00;;;;;;;4.18;1.95;;;14.50;99.90;;;;;;4991692;28;20474;-79
2023/05/10 09:31:52;;;;;;;2.90;1.52;;;14.50;99.90;;;;;;4962464;28;20100;-79
2023/05/10 09:34:40;;;;;;;5.25;2.80;;;14.40;99.90;;;;;;5013458;28;20521;-79
2023/05/10 09:37:29;;;;;;;6.93;3.60;;;14.30;99.90;;;;;;5012724;28;20049;-79
2023/05/10 09:40:17;;;;;;;5.22;3.15;;;14.30;99.90;;;;;;5012988;28;20065;-78
2023/05/10 09:43:07;;;;;;;5.38;2.80;;;14.40;99.90;;;;;;4996391;28;20132;-79
2023/05/10 09:45:53;;;;;;;5.55;2.78;;;14.20;99.90;;;;;;4996053;28;20161;-79
2023/05/10 09:48:46;;;;;;;4.03;2.28;;;14.20;99.90;;;;;;4996574;28;20053;-79
2023/05/10 09:51:36;;;;;;;4.30;2.28;;;14.20;99.90;;;;;;5013261;28;20050;-79
2023/05/10 09:54:23;;;;;;;5.70;3.03;;;14.10;99.90;;;;;;4997093;28;20056;-79
2023/05/10 09:57:22;;;;;;;6.47;2.20;;;14.10;99.90;;;;;;4999477;28;20042;-80
2023/05/10 10:00:16;;;;;;;7.10;2.40;;;14.00;99.90;;;;;;5011318;28;20064;-80
2023/05/10 10:03:05;;;;;;;11.38;3.03;;;14.10;99.90;;;;;;5012727;28;20076;-79
2023/05/10 10:05:53;;;;;;;5.03;2.65;;;14.20;99.90;;;;;;4981649;28;20069;-79
2023/05/10 10:08:39;;;;;;;5.70;2.67;;;14.10;99.90;;;;;;4997018;28;20053;-78
2023/05/10 10:11:25;;;;;;;9.82;3.90;;;14.20;99.90;;;;;;4994877;28;20482;-79
2023/05/10 10:14:12;;;;;;;6.55;3.38;;;14.10;99.90;;;;;;5011351;28;20120;-79
2023/05/10 10:17:00;;;;;;;7.50;3.40;;;14.10;99.90;;;;;;4997472;28;20635;-78
2023/05/10 10:19:50;;;;;;;8.20;3.92;;;14.20;99.90;;;;;;5012720;28;20053;-79
2023/05/10 10:22:37;;;;;;;8.02;4.38;;;14.20;99.90;;;;;;4981266;28;20054;-79
2023/05/10 10:25:24;;;;;;;6.65;4.35;;;14.20;99.90;;;;;;4993911;28;20069;-79
2023/05/10 10:28:47;;;;;;;10.18;4.30;;;14.10;99.90;;;;;;5012098;28;20080;-79
2023/05/10 10:31:47;;;;;;;8.82;5.15;;;14.00;99.90;;;;;;4993452;28;20521;-79
2023/05/10 10:34:33;;;;;;;7.93;4.68;;;14.00;99.90;;;;;;4981164;28;20049;-79
2023/05/10 10:37:20;;;;;;;9.68;4.43;;;14.10;99.90;;;;;;4994425;28;20140;-79
2023/05/10 10:40:29;;;;;;;8.70;4.53;;;14.20;99.90;;;;;;4994744;28;20124;-79
2023/05/10 10:43:25;;;;;;;14.45;4.82;;;14.20;99.90;;;;;;4960149;28;20046;-79
2023/05/10 10:46:16;;;;;;;10.13;5.05;;;14.10;99.90;;;;;;4994158;28;20056;-79
2023/05/10 10:49:10;;;;;;;6.72;4.18;;;14.20;99.90;;;;;;4995400;28;20753;-78
2023/05/10 10:52:23;;;;;;;11.13;4.95;;;14.20;99.90;;;;;;5002189;28;20054;-77
2023/05/10 10:55:18;;;;;;;11.63;5.65;;;14.20;99.90;;;;;;4996594;28;20079;-79
2023/05/10 10:58:05;;;;;;;16.88;6.43;;;14.20;99.90;;;;;;4968526;28;20088;-79
2023/05/10 11:01:18;;;;;;;13.40;6.40;;;14.30;99.90;;;;;;5011318;28;20145;-79
2023/05/10 11:04:17;;;;;;;14.10;6.20;;;14.30;99.90;;;;;;4974178;28;20046;-78
2023/05/10 11:07:20;;;;;;;18.30;8.07;;;14.40;99.90;;;;;;4993126;28;20049;-79
2023/05/10 11:10:09;;;;;;;14.35;8.32;;;14.30;99.90;;;;;;4994452;28;20085;-80
2023/05/10 11:13:26;;;;;;;14.57;7.43;;;14.20;99.90;;;;;;4961918;28;20054;-79
2023/05/10 11:16:20;;;;;;;15.43;8.85;;;14.30;99.90;;;;;;4988113;28;20053;-79
2023/05/10 11:19:15;;;;;;;11.65;7.70;;;14.30;99.90;;;;;;4974512;28;20053;-80
2023/05/10 11:22:04;;;;;;;12.20;6.97;;;14.40;99.90;;;;;;5011245;28;20054;-79
2023/05/10 11:24:58;;;;;;;9.38;6.38;;;14.30;99.90;;;;;;5011932;28;20053;-79
2023/05/10 11:27:47;;;;;;;12.68;6.10;;;14.40;99.90;;;;;;4994887;28;20085;-79
2023/05/10 11:30:40;;;;;;;8.77;5.32;;;14.40;99.90;;;;;;4994067;28;20076;-79
2023/05/10 11:33:29;;;;;;;9.77;5.97;;;14.50;99.90;;;;;;5010565;28;20053;-78
2023/05/10 11:36:27;;;;;;;8.00;5.25;;;14.60;99.90;;;;;;4980639;28;20094;-78
2023/05/10 11:39:14;;;;;;;8.75;5.50;;;14.60;99.90;;;;;;4993027;28;20045;-79
2023/05/10 11:42:00;;;;;;;8.40;5.65;;;14.60;99.90;;;;;;4993563;28;20061;-79
2023/05/10 11:44:53;;;;;;;10.30;6.35;;;14.70;99.90;;;;;;5011495;28;20518;-80
2023/05/10 11:47:43;;;;;;;8.90;6.13;;;14.90;99.90;;;;;;5010839;28;20050;-79
2023/05/10 11:50:29;;;;;;;10.02;6.07;;;14.90;99.90;;;;;;4980073;28;20129;-78
2023/05/10 11:53:15;;;;;;;7.45;5.22;;;15.10;99.90;;;;;;4978974;28;20058;-78
2023/05/10 11:56:09;;;;;;;9.60;5.60;;;15.10;99.90;;;;;;4992862;28;20053;-78
2023/05/10 11:59:01;;;;;;;9.77;6.20;;;15.30;99.90;;;;;;4996697;28;20108;-79
2023/05/10 12:01:54;;;;;;;12.00;6.90;;;15.50;99.90;;;;;;4980693;28;20057;-79
2023/05/10 12:04:40;;;;;;;8.68;5.70;;;15.50;99.90;;;;;;5011056;28;20049;-79
2023/05/10 12:07:35;;;;;;;10.20;5.05;;;15.70;99.90;;;;;;4992797;28;20054;-79
2023/05/10 12:10:28;;;;;;;9.93;6.30;;;15.90;99.90;;;;;;4992970;28;20054;-79
2023/05/10 12:13:15;;;;;;;8.18;6.05;;;16.20;99.90;;;;;;4979755;28;20058;-79
2023/05/10 12:16:16;;;;;;;7.80;4.95;;;16.30;99.90;;;;;;5010153;28;20088;-79
2023/05/10 12:19:02;;;;;;;6.78;4.53;;;16.40;99.90;;;;;;5010061;28;20188;-79
2023/05/10 12:21:48;;;;;;;8.80;5.70;;;16.70;99.90;;;;;;5011144;28;20569;-79
2023/05/10 12:24:38;;;;;;;7.63;4.82;;;16.90;99.90;;;;;;5010517;28;20056;-79
2023/05/10 12:27:24;;;;;;;8.00;5.22;;;17.10;99.90;;;;;;5010900;28;20439;-78
2023/05/10 12:30:11;;;;;;;7.72;5.60;;;17.20;99.90;;;;;;5009855;28;20569;-78
2023/05/10 12:33:10;;;;;;;10.00;6.40;;;17.20;99.90;;;;;;5010139;28;20045;-80
2023/05/10 12:35:59;;;;;;;9.10;5.82;;;17.30;99.90;;;;;;4993224;28;20046;-80
2023/05/10 12:38:48;;;;;;;9.05;6.15;;;17.50;99.90;;;;;;5011622;28;20106;-80
2023/05/10 12:41:34;;;;;;;9.63;6.35;;;17.50;99.90;;;;;;5011312;28;20060;-80
2023/05/10 12:44:21;;;;;;;8.95;6.30;;;17.60;99.90;;;;;;5010829;28;20058;-79
2023/05/10 12:47:07;;;;;;;11.05;6.75;;;17.60;99.90;;;;;;4991019;28;20048;-80
2023/05/10 12:49:53;;;;;;;12.80;7.22;;;17.70;99.90;;;;;;5010476;28;20697;-80
2023/05/10 12:52:39;;;;;;;11.48;7.38;;;17.90;99.90;;;;;;5010101;28;20057;-79
2023/05/10 12:55:25;;;;;;;12.68;8.45;;;18.00;99.90;;;;;;5008837;28;20054;-80
2023/05/10 12:58:12;;;;;;;12.43;7.70;;;18.00;99.90;;;;;;5009942;28;20202;-80
2023/05/10 13:00:59;;;;;;;14.18;7.82;;;18.10;99.90;;;;;;5009328;28;20085;-80
2023/05/10 13:03:45;;;;;;;11.07;7.60;;;18.40;99.90;;;;;;5010998;28;20086;-80
2023/05/10 13:06:31;;;;;;;11.70;7.85;;;18.60;99.90;;;;;;4997258;28;20107;-80
2023/05/10 13:09:17;;;;;;;12.95;8.05;;;18.90;99.90;;;;;;5014100;28;20100;-81
2023/05/10 13:12:03;;;;;;;13.57;8.68;;;19.00;99.90;;;;;;4997793;28;20057;-79
2023/05/10 13:14:50;;;;;;;14.27;9.05;;;19.50;99.90;;;;;;4995875;28;20085;-79
2023/05/10 13:17:36;;;;;;;12.07;8.48;;;19.20;99.90;;;;;;5012083;28;20165;-79
2023/05/10 13:20:23;;;;;;;10.30;6.85;;;19.30;99.90;;;;;;4995840;28;20050;-78
2023/05/10 13:23:09;;;;;;;8.13;5.22;;;20.00;99.90;;;;;;5015316;28;20046;-80
2023/05/10 13:25:55;;;;;;;6.32;5.10;;;20.70;99.90;;;;;;5000519;28;20072;-79
2023/05/10 13:28:41;;;;;;;8.00;4.72;;;20.80;99.90;;;;;;5014052;28;20046;-79
2023/05/10 13:31:27;;;;;;;6.95;5.30;;;21.10;99.90;;;;;;4996441;28;20057;-79
2023/05/10 13:34:13;;;;;;;8.25;6.40;;;20.80;99.90;;;;;;5014080;28;20057;-79
2023/05/10 13:36:59;;;;;;;9.60;6.50;;;20.20;99.90;;;;;;4996981;28;20058;-79
2023/05/10 13:39:45;;;;;;;7.57;5.53;;;19.50;99.90;;;;;;4995678;28;20136;-79
2023/05/10 13:42:33;;;;;;;7.68;5.50;;;19.10;99.90;;;;;;5013057;28;20092;-79
2023/05/10 13:45:19;;;;;;;8.82;6.07;;;19.60;99.90;;;;;;4981849;28;20049;-79
2023/05/10 13:48:05;;;;;;;10.65;5.90;;;19.90;99.90;;;;;;4994572;28;20141;-79
2023/05/10 13:50:51;;;;;;;8.10;4.85;;;19.70;99.90;;;;;;5012896;28;20116;-80
2023/05/10 13:53:38;;;;;;;6.50;4.90;;;20.70;99.90;;;;;;4995505;28;20127;-78
2023/05/10 13:56:24;;;;;;;5.43;4.13;;;20.90;99.90;;;;;;5013185;28;20050;-78
2023/05/10 13:59:10;;;;;;;7.43;4.45;;;20.50;99.90;;;;;;5013371;28;20058;-79
2023/05/10 14:01:56;;;;;;;6.63;3.97;;;20.70;99.90;;;;;;5013281;28;20099;-79
2023/05/10 14:04:42;;;;;;;6.45;4.28;;;20.70;99.90;;;;;;4998670;28;20046;-79
2023/05/10 14:07:28;;;;;;;5.82;4.57;;;20.60;99.90;;;;;;4995325;28;20160;-79
2023/05/10 14:10:14;;;;;;;6.65;4.60;;;20.30;99.90;;;;;;5012755;28;20072;-79
2023/05/10 14:13:01;;;;;;;5.75;3.80;;;19.80;99.90;;;;;;4994373;28;20482;-79
2023/05/10 14:15:47;;;;;;;6.82;3.72;;;19.20;99.90;;;;;;4993419;28;20392;-80
2023/05/10 14:18:32;;;;;;;5.57;3.80;;;18.80;99.90;;;;;;5012933;28;20054;-79
2023/05/10 14:21:18;;;;;;;5.07;3.67;;;18.50;99.90;;;;;;4995087;28;20061;-80
2023/05/10 14:24:06;;;;;;;4.68;2.97;;;18.40;99.90;;;;;;5012890;28;20057;-80
2023/05/10 14:26:55;;;;;;;4.03;2.55;;;18.20;99.90;;;;;;4994593;28;20062;-80
2023/05/10 14:29:41;;;;;;;4.72;2.50;;;18.30;99.90;;;;;;5011656;28;20057;-81
2023/05/10 14:32:28;;;;;;;4.68;2.47;;;18.20;99.90;;;;;;4995495;28;20050;-80
2023/05/10 14:35:14;;;;;;;5.13;3.22;;;17.90;99.90;;;;;;5013602;28;20042;-79